sensor_id;sensor_type;location;lat;lon;timestamp;temperature;humidity
32502;DHT22;18952;52.516;13.460;2023-08-01T00:01:11;17.60;99.90
32502;DHT22;18952;52.516;13.460;2023-08-01T00:03:38;17.50;99.90
32502;DHT22;18952;52.516;13.460;2023-08-01T00:06:05;17.50;99.90
32502;DHT22;18952;52.516;13.460;2023-08-01T00:08:32;17.40;99.90
32502;DHT22;18952;52.516;13.460;2023-08-01T00:10:59;17.40;99.90
32502;DHT22;18952;52.516;13.460;2023-08-01T00:13:25;17.40;99.90
32502;DHT22;18952;52.516;13.460;2023-08-01T00:15:53;17.30;99.90
32502;DHT22;18952;52.516;13.460;2023-08-01T00:18:33;17.20;99.90
32502;DHT22;18952;52.516;13.460;2023-08-01T00:21:00;17.20;99.90
32502;DHT22;18952;52.516;13.460;2023-08-01T00:23:27;17.10;99.90
32502;DHT22;18952;52.516;13.460;2023-08-01T00:25:54;17.10;99.90
32502;DHT22;18952;52.516;13.460;2023-08-01T00:28:22;17.10;99.90
32502;DHT22;18952;52.516;13.460;2023-08-01T00:30:49;17.00;99.90
32502;DHT22;18952;52.516;13.460;2023-08-01T00:33:15;16.90;99.90
32502;DHT22;18952;52.516;13.460;2023-08-01T00:45:37;16.60;99.90
32502;DHT22;18952;52.516;13.460;2023-08-01T00:48:04;16.50;99.90
32502;DHT22;18952;52.516;13.460;2023-08-01T00:50:31;16.50;99.90
32502;DHT22;18952;52.516;13.460;2023-08-01T00:52:58;16.40;99.90
32502;DHT22;18952;52.516;13.460;2023-08-01T00:55:27;16.30;99.90
32502;DHT22;18952;52.516;13.460;2023-08-01T00:57:53;16.30;99.90
32502;DHT22;18952;52.516;13.460;2023-08-01T01:00:20;16.30;99.90
32502;DHT22;18952;52.516;13.460;2023-08-01T01:02:47;16.20;99.90
32502;DHT22;18952;52.516;13.460;2023-08-01T01:05:14;16.20;99.90
32502;DHT22;18952;52.516;13.460;2023-08-01T01:07:41;16.20;99.90
32502;DHT22;18952;52.516;13.460;2023-08-01T01:10:09;16.20;99.90
32502;DHT22;18952;52.516;13.460;2023-08-01T01:12:36;16.20;99.90
32502;DHT22;18952;52.516;13.460;2023-08-01T01:15:03;16.20;99.90
32502;DHT22;18952;52.516;13.460;2023-08-01T01:17:30;16.10;99.90
32502;DHT22;18952;52.516;13.460;2023-08-01T01:19:57;16.20;99.90
32502;DHT22;18952;52.516;13.460;2023-08-01T01:22:24;16.20;99.90
32502;DHT22;18952;52.516;13.460;2023-08-01T01:24:52;16.20;99.90
32502;DHT22;18952;52.516;13.460;2023-08-01T01:27:20;16.10;99.90
32502;DHT22;18952;52.516;13.460;2023-08-01T01:29:48;16.10;99.90
32502;DHT22;18952;52.516;13.460;2023-08-01T01:32:16;16.20;99.90
32502;DHT22;18952;52.516;13.460;2023-08-01T01:34:44;16.20;99.90
32502;DHT22;18952;52.516;13.460;2023-08-01T01:37:11;16.20;99.90
32502;DHT22;18952;52.516;13.460;2023-08-01T01:39:38;16.20;99.90
32502;DHT22;18952;52.516;13.460;2023-08-01T01:42:05;16.20;99.90
32502;DHT22;18952;52.516;13.460;2023-08-01T01:44:31;16.20;99.90
32502;DHT22;18952;52.516;13.460;2023-08-01T01:46:58;16.20;99.90
32502;DHT22;18952;52.516;13.460;2023-08-01T01:49:25;16.20;99.90
32502;DHT22;18952;52.516;13.460;2023-08-01T01:51:51;16.10;99.90
32502;DHT22;18952;52.516;13.460;2023-08-01T01:54:19;16.20;99.90
32502;DHT22;18952;52.516;13.460;2023-08-01T01:56:46;16.20;99.90
32502;DHT22;18952;52.516;13.460;2023-08-01T01:59:13;16.10;99.90
32502;DHT22;18952;52.516;13.460;2023-08-01T02:01:39;16.10;99.90
32502;DHT22;18952;52.516;13.460;2023-08-01T02:04:06;16.10;99.90
32502;DHT22;18952;52.516;13.460;2023-08-01T02:06:33;16.10;99.90
32502;DHT22;18952;52.516;13.460;2023-08-01T02:09:00;16.10;99.90
32502;DHT22;18952;52.516;13.460;2023-08-01T02:11:27;16.10;99.90
32502;DHT22;18952;52.516;13.460;2023-08-01T02:13:54;16.00;99.90
32502;DHT22;18952;52.516;13.460;2023-08-01T02:16:20;16.00;99.90
32502;DHT22;18952;52.516;13.460;2023-08-01T02:18:47;16.00;99.90
32502;DHT22;18952;52.516;13.460;2023-08-01T02:21:14;16.00;99.90
32502;DHT22;18952;52.516;13.460;2023-08-01T02:23:41;16.00;99.90
32502;DHT22;18952;52.516;13.460;2023-08-01T02:26:08;16.00;99.90
32502;DHT22;18952;52.516;13.460;2023-08-01T02:28:34;16.00;99.90
32502;DHT22;18952;52.516;13.460;2023-08-01T02:31:01;16.00;99.90
32502;DHT22;18952;52.516;13.460;2023-08-01T02:33:28;16.00;99.90
32502;DHT22;18952;52.516;13.460;2023-08-01T02:35:55;16.00;99.90
32502;DHT22;18952;52.516;13.460;2023-08-01T02:38:22;16.00;99.90
32502;DHT22;18952;52.516;13.460;2023-08-01T02:40:48;16.00;99.90
32502;DHT22;18952;52.516;13.460;2023-08-01T02:43:15;16.10;99.90
32502;DHT22;18952;52.516;13.460;2023-08-01T02:45:42;16.10;99.90
32502;DHT22;18952;52.516;13.460;2023-08-01T02:48:09;16.10;99.90
32502;DHT22;18952;52.516;13.460;2023-08-01T02:50:36;16.10;99.90
32502;DHT22;18952;52.516;13.460;2023-08-01T02:53:04;16.10;99.90
32502;DHT22;18952;52.516;13.460;2023-08-01T02:55:31;16.10;99.90
32502;DHT22;18952;52.516;13.460;2023-08-01T02:57:58;16.10;99.90
32502;DHT22;18952;52.516;13.460;2023-08-01T03:00:25;16.10;99.90
32502;DHT22;18952;52.516;13.460;2023-08-01T03:02:52;16.10;99.90
32502;DHT22;18952;52.516;13.460;2023-08-01T03:05:18;16.10;99.90
32502;DHT22;18952;52.516;13.460;2023-08-01T03:07:45;16.10;99.90
32502;DHT22;18952;52.516;13.460;2023-08-01T03:10:12;16.20;99.90
32502;DHT22;18952;52.516;13.460;2023-08-01T03:12:42;16.20;99.90
32502;DHT22;18952;52.516;13.460;2023-08-01T03:15:09;16.20;99.90
32502;DHT22;18952;52.516;13.460;2023-08-01T03:17:36;16.20;99.90
32502;DHT22;18952;52.516;13.460;2023-08-01T03:20:03;16.20;99.90
32502;DHT22;18952;52.516;13.460;2023-08-01T03:22:30;16.20;99.90
32502;DHT22;18952;52.516;13.460;2023-08-01T03:24:57;16.30;99.90
32502;DHT22;18952;52.516;13.460;2023-08-01T03:27:24;16.20;99.90
32502;DHT22;18952;52.516;13.460;2023-08-01T03:29:51;16.30;99.90
32502;DHT22;18952;52.516;13.460;2023-08-01T03:32:17;16.30;99.90
32502;DHT22;18952;52.516;13.460;2023-08-01T03:34:44;16.30;99.90
32502;DHT22;18952;52.516;13.460;2023-08-01T03:37:11;16.20;99.90
32502;DHT22;18952;52.516;13.460;2023-08-01T03:39:38;16.20;99.90
32502;DHT22;18952;52.516;13.460;2023-08-01T03:42:05;16.30;99.90
32502;DHT22;18952;52.516;13.460;2023-08-01T03:44:31;16.20;99.90
32502;DHT22;18952;52.516;13.460;2023-08-01T03:46:58;16.20;99.90
32502;DHT22;18952;52.516;13.460;2023-08-01T03:49:25;16.20;99.90
32502;DHT22;18952;52.516;13.460;2023-08-01T03:51:52;16.20;99.90
32502;DHT22;18952;52.516;13.460;2023-08-01T03:54:19;16.20;99.90
32502;DHT22;18952;52.516;13.460;2023-08-01T03:56:46;16.20;99.90
32502;DHT22;18952;52.516;13.460;2023-08-01T03:59:15;16.20;99.90
32502;DHT22;18952;52.516;13.460;2023-08-01T04:01:42;16.30;99.90
32502;DHT22;18952;52.516;13.460;2023-08-01T04:04:09;16.30;99.90
32502;DHT22;18952;52.516;13.460;2023-08-01T04:06:36;16.30;99.90
32502;DHT22;18952;52.516;13.460;2023-08-01T04:09:04;16.30;99.90
32502;DHT22;18952;52.516;13.460;2023-08-01T04:11:31;16.30;99.90
32502;DHT22;18952;52.516;13.460;2023-08-01T04:13:58;16.30;99.90
32502;DHT22;18952;52.516;13.460;2023-08-01T04:16:25;16.30;99.90
32502;DHT22;18952;52.516;13.460;2023-08-01T04:18:51;16.30;99.90
32502;DHT22;18952;52.516;13.460;2023-08-01T04:21:18;16.40;99.90
32502;DHT22;18952;52.516;13.460;2023-08-01T04:23:45;16.40;99.90
32502;DHT22;18952;52.516;13.460;2023-08-01T04:26:12;16.40;99.90
32502;DHT22;18952;52.516;13.460;2023-08-01T04:28:39;16.50;99.90
32502;DHT22;18952;52.516;13.460;2023-08-01T04:31:05;16.40;99.90
32502;DHT22;18952;52.516;13.460;2023-08-01T04:33:32;16.50;99.90
32502;DHT22;18952;52.516;13.460;2023-08-01T04:35:59;16.50;99.90
32502;DHT22;18952;52.516;13.460;2023-08-01T04:38:26;16.60;99.90
32502;DHT22;18952;52.516;13.460;2023-08-01T04:40:53;16.60;99.90
32502;DHT22;18952;52.516;13.460;2023-08-01T04:43:19;16.60;99.90
32502;DHT22;18952;52.516;13.460;2023-08-01T04:45:46;16.70;99.90
32502;DHT22;18952;52.516;13.460;2023-08-01T04:48:13;16.70;99.90
32502;DHT22;18952;52.516;13.460;2023-08-01T04:50:40;16.70;99.90
32502;DHT22;18952;52.516;13.460;2023-08-01T04:53:06;16.70;99.90
32502;DHT22;18952;52.516;13.460;2023-08-01T04:55:33;16.70;99.90
32502;DHT22;18952;52.516;13.460;2023-08-01T04:58:00;16.60;99.90
32502;DHT22;18952;52.516;13.460;2023-08-01T05:00:27;16.60;99.90
32502;DHT22;18952;52.516;13.460;2023-08-01T05:02:54;16.60;99.90
32502;DHT22;18952;52.516;13.460;2023-08-01T05:05:20;16.60;99.90
32502;DHT22;18952;52.516;13.460;2023-08-01T05:07:47;16.60;99.90
32502;DHT22;18952;52.516;13.460;2023-08-01T05:10:14;16.60;99.90
32502;DHT22;18952;52.516;13.460;2023-08-01T05:12:43;16.70;99.90
32502;DHT22;18952;52.516;13.460;2023-08-01T05:15:10;16.60;99.90
32502;DHT22;18952;52.516;13.460;2023-08-01T05:17:37;16.60;99.90
32502;DHT22;18952;52.516;13.460;2023-08-01T05:20:04;16.60;99.90
32502;DHT22;18952;52.516;13.460;2023-08-01T05:22:31;16.60;99.90
32502;DHT22;18952;52.516;13.460;2023-08-01T05:24:58;16.70;99.90
32502;DHT22;18952;52.516;13.460;2023-08-01T05:27:25;16.70;99.90
32502;DHT22;18952;52.516;13.460;2023-08-01T05:29:51;16.70;99.90
32502;DHT22;18952;52.516;13.460;2023-08-01T05:32:18;16.70;99.90
32502;DHT22;18952;52.516;13.460;2023-08-01T05:34:45;16.80;99.90
32502;DHT22;18952;52.516;13.460;2023-08-01T05:37:12;16.80;99.90
32502;DHT22;18952;52.516;13.460;2023-08-01T05:39:39;16.90;99.90
32502;DHT22;18952;52.516;13.460;2023-08-01T05:42:06;16.90;99.90
32502;DHT22;18952;52.516;13.460;2023-08-01T05:44:33;16.90;99.90
32502;DHT22;18952;52.516;13.460;2023-08-01T05:46:59;17.00;99.90
32502;DHT22;18952;52.516;13.460;2023-08-01T05:49:26;17.00;99.90
32502;DHT22;18952;52.516;13.460;2023-08-01T05:51:53;17.00;99.90
32502;DHT22;18952;52.516;13.460;2023-08-01T05:54:20;17.00;99.90
32502;DHT22;18952;52.516;13.460;2023-08-01T05:56:47;17.10;99.90
32502;DHT22;18952;52.516;13.460;2023-08-01T05:59:14;17.20;99.90
32502;DHT22;18952;52.516;13.460;2023-08-01T06:01:41;17.10;99.90
32502;DHT22;18952;52.516;13.460;2023-08-01T06:04:08;17.10;99.90
32502;DHT22;18952;52.516;13.460;2023-08-01T06:06:37;17.10;99.90
32502;DHT22;18952;52.516;13.460;2023-08-01T06:09:04;17.10;99.90
32502;DHT22;18952;52.516;13.460;2023-08-01T06:11:31;17.20;99.90
32502;DHT22;18952;52.516;13.460;2023-08-01T06:13:58;17.20;99.90
32502;DHT22;18952;52.516;13.460;2023-08-01T06:16:25;17.20;99.90
32502;DHT22;18952;52.516;13.460;2023-08-01T06:18:54;17.20;99.90
32502;DHT22;18952;52.516;13.460;2023-08-01T06:21:20;17.10;99.90
32502;DHT22;18952;52.516;13.460;2023-08-01T06:23:47;17.20;99.90
32502;DHT22;18952;52.516;13.460;2023-08-01T06:26:14;17.20;99.90
32502;DHT22;18952;52.516;13.460;2023-08-01T06:28:41;17.20;99.90
32502;DHT22;18952;52.516;13.460;2023-08-01T06:31:08;17.30;99.90
32502;DHT22;18952;52.516;13.460;2023-08-01T06:33:35;17.30;99.90
32502;DHT22;18952;52.516;13.460;2023-08-01T06:36:01;17.30;99.90
32502;DHT22;18952;52.516;13.460;2023-08-01T06:38:28;17.30;99.90
32502;DHT22;18952;52.516;13.460;2023-08-01T06:40:55;17.20;99.90
32502;DHT22;18952;52.516;13.460;2023-08-01T06:43:22;17.20;99.90
32502;DHT22;18952;52.516;13.460;2023-08-01T06:45:49;17.10;99.90
32502;DHT22;18952;52.516;13.460;2023-08-01T06:48:16;17.10;99.90
32502;DHT22;18952;52.516;13.460;2023-08-01T06:50:43;17.00;99.90
32502;DHT22;18952;52.516;13.460;2023-08-01T06:53:09;17.10;99.90
32502;DHT22;18952;52.516;13.460;2023-08-01T06:55:36;17.20;99.90
32502;DHT22;18952;52.516;13.460;2023-08-01T06:58:03;17.10;99.90
32502;DHT22;18952;52.516;13.460;2023-08-01T07:00:30;17.10;99.90
32502;DHT22;18952;52.516;13.460;2023-08-01T07:02:57;17.10;99.90
32502;DHT22;18952;52.516;13.460;2023-08-01T07:05:24;17.00;99.90
32502;DHT22;18952;52.516;13.460;2023-08-01T07:07:51;17.00;99.90
32502;DHT22;18952;52.516;13.460;2023-08-01T07:10:18;17.10;99.90
32502;DHT22;18952;52.516;13.460;2023-08-01T07:12:45;17.10;99.90
32502;DHT22;18952;52.516;13.460;2023-08-01T07:15:11;17.10;99.90
32502;DHT22;18952;52.516;13.460;2023-08-01T07:17:38;17.20;99.90
32502;DHT22;18952;52.516;13.460;2023-08-01T07:20:05;17.30;99.90
32502;DHT22;18952;52.516;13.460;2023-08-01T07:22:32;17.30;99.90
32502;DHT22;18952;52.516;13.460;2023-08-01T07:24:59;17.50;99.90
32502;DHT22;18952;52.516;13.460;2023-08-01T07:27:25;17.50;99.90
32502;DHT22;18952;52.516;13.460;2023-08-01T07:29:53;17.60;99.90
32502;DHT22;18952;52.516;13.460;2023-08-01T07:32:19;17.60;99.90
32502;DHT22;18952;52.516;13.460;2023-08-01T07:34:46;17.70;99.90
32502;DHT22;18952;52.516;13.460;2023-08-01T07:37:13;17.70;99.90
32502;DHT22;18952;52.516;13.460;2023-08-01T07:39:40;17.80;99.90
32502;DHT22;18952;52.516;13.460;2023-08-01T07:42:07;17.80;99.90
32502;DHT22;18952;52.516;13.460;2023-08-01T07:44:34;17.80;99.90
32502;DHT22;18952;52.516;13.460;2023-08-01T07:47:00;17.80;99.90
32502;DHT22;18952;52.516;13.460;2023-08-01T07:49:28;18.00;99.90
32502;DHT22;18952;52.516;13.460;2023-08-01T07:51:55;18.10;99.90
32502;DHT22;18952;52.516;13.460;2023-08-01T07:54:24;18.10;99.90
32502;DHT22;18952;52.516;13.460;2023-08-01T07:56:51;18.10;99.90
32502;DHT22;18952;52.516;13.460;2023-08-01T07:59:17;18.10;99.90
32502;DHT22;18952;52.516;13.460;2023-08-01T08:01:44;18.10;99.90
32502;DHT22;18952;52.516;13.460;2023-08-01T08:04:11;18.20;99.90
32502;DHT22;18952;52.516;13.460;2023-08-01T08:06:38;18.30;99.90
32502;DHT22;18952;52.516;13.460;2023-08-01T08:09:06;18.40;99.90
32502;DHT22;18952;52.516;13.460;2023-08-01T08:11:33;18.60;99.90
32502;DHT22;18952;52.516;13.460;2023-08-01T08:13:59;18.70;99.90
32502;DHT22;18952;52.516;13.460;2023-08-01T08:16:26;18.80;99.90
32502;DHT22;18952;52.516;13.460;2023-08-01T08:18:53;18.90;99.90
32502;DHT22;18952;52.516;13.460;2023-08-01T08:21:20;18.90;99.90
32502;DHT22;18952;52.516;13.460;2023-08-01T08:23:47;18.90;99.90
32502;DHT22;18952;52.516;13.460;2023-08-01T08:26:14;18.90;99.90
32502;DHT22;18952;52.516;13.460;2023-08-01T08:28:40;18.90;99.90
32502;DHT22;18952;52.516;13.460;2023-08-01T08:31:08;18.90;99.90
32502;DHT22;18952;52.516;13.460;2023-08-01T08:33:34;18.90;99.90
32502;DHT22;18952;52.516;13.460;2023-08-01T08:36:01;19.10;99.90
32502;DHT22;18952;52.516;13.460;2023-08-01T08:38:28;19.10;99.90
32502;DHT22;18952;52.516;13.460;2023-08-01T08:41:11;19.20;99.90
32502;DHT22;18952;52.516;13.460;2023-08-01T08:43:41;19.30;99.90
32502;DHT22;18952;52.516;13.460;2023-08-01T08:46:08;19.40;99.90
32502;DHT22;18952;52.516;13.460;2023-08-01T08:48:37;19.60;99.90
32502;DHT22;18952;52.516;13.460;2023-08-01T08:51:06;19.80;99.90
32502;DHT22;18952;52.516;13.460;2023-08-01T08:53:35;19.80;99.90
32502;DHT22;18952;52.516;13.460;2023-08-01T08:56:02;19.80;99.90
32502;DHT22;18952;52.516;13.460;2023-08-01T08:58:29;19.90;99.90
32502;DHT22;18952;52.516;13.460;2023-08-01T09:00:58;19.80;99.90
32502;DHT22;18952;52.516;13.460;2023-08-01T09:03:28;19.80;99.90
32502;DHT22;18952;52.516;13.460;2023-08-01T09:06:04;19.90;99.90
32502;DHT22;18952;52.516;13.460;2023-08-01T09:08:34;19.90;99.90
32502;DHT22;18952;52.516;13.460;2023-08-01T09:11:02;20.00;99.90
32502;DHT22;18952;52.516;13.460;2023-08-01T09:13:29;20.10;99.90
32502;DHT22;18952;52.516;13.460;2023-08-01T09:15:56;20.20;99.90
32502;DHT22;18952;52.516;13.460;2023-08-01T09:18:23;20.30;99.90
32502;DHT22;18952;52.516;13.460;2023-08-01T09:20:50;20.40;99.90
32502;DHT22;18952;52.516;13.460;2023-08-01T09:23:17;20.50;99.90
32502;DHT22;18952;52.516;13.460;2023-08-01T09:25:44;20.60;99.90
32502;DHT22;18952;52.516;13.460;2023-08-01T09:28:19;20.50;99.90
32502;DHT22;18952;52.516;13.460;2023-08-01T09:30:50;20.70;99.90
32502;DHT22;18952;52.516;13.460;2023-08-01T09:33:18;20.80;99.90
32502;DHT22;18952;52.516;13.460;2023-08-01T09:35:45;20.90;99.90
32502;DHT22;18952;52.516;13.460;2023-08-01T09:38:13;20.80;99.90
32502;DHT22;18952;52.516;13.460;2023-08-01T09:40:40;20.80;99.90
32502;DHT22;18952;52.516;13.460;2023-08-01T09:43:07;20.70;99.90
32502;DHT22;18952;52.516;13.460;2023-08-01T09:45:34;20.50;99.90
32502;DHT22;18952;52.516;13.460;2023-08-01T09:48:01;20.30;99.90
32502;DHT22;18952;52.516;13.460;2023-08-01T09:50:28;20.10;99.90
32502;DHT22;18952;52.516;13.460;2023-08-01T09:52:55;20.00;99.90
32502;DHT22;18952;52.516;13.460;2023-08-01T09:55:31;19.70;99.90
32502;DHT22;18952;52.516;13.460;2023-08-01T09:57:59;19.40;99.90
32502;DHT22;18952;52.516;13.460;2023-08-01T10:00:30;19.30;99.90
32502;DHT22;18952;52.516;13.460;2023-08-01T10:03:00;19.40;99.90
32502;DHT22;18952;52.516;13.460;2023-08-01T10:05:32;19.60;99.90
32502;DHT22;18952;52.516;13.460;2023-08-01T10:08:02;19.70;99.90
32502;DHT22;18952;52.516;13.460;2023-08-01T10:10:29;19.80;99.90
32502;DHT22;18952;52.516;13.460;2023-08-01T10:13:01;19.90;99.90
32502;DHT22;18952;52.516;13.460;2023-08-01T10:15:29;19.90;99.90
32502;DHT22;18952;52.516;13.460;2023-08-01T10:17:57;19.80;99.90
32502;DHT22;18952;52.516;13.460;2023-08-01T10:20:24;19.80;99.90
32502;DHT22;18952;52.516;13.460;2023-08-01T10:22:52;19.70;99.90
32502;DHT22;18952;52.516;13.460;2023-08-01T10:25:20;19.70;99.90
32502;DHT22;18952;52.516;13.460;2023-08-01T10:28:00;19.60;99.90
32502;DHT22;18952;52.516;13.460;2023-08-01T10:30:28;19.60;99.90
32502;DHT22;18952;52.516;13.460;2023-08-01T10:32:57;19.50;99.90
32502;DHT22;18952;52.516;13.460;2023-08-01T10:35:35;19.50;99.90
32502;DHT22;18952;52.516;13.460;2023-08-01T10:38:10;19.50;99.90
32502;DHT22;18952;52.516;13.460;2023-08-01T10:40:42;19.50;99.90
32502;DHT22;18952;52.516;13.460;2023-08-01T10:43:22;19.60;99.90
32502;DHT22;18952;52.516;13.460;2023-08-01T10:46:00;19.50;99.90
32502;DHT22;18952;52.516;13.460;2023-08-01T10:48:27;19.50;99.90
32502;DHT22;18952;52.516;13.460;2023-08-01T10:50:58;19.40;99.90
32502;DHT22;18952;52.516;13.460;2023-08-01T10:53:25;19.40;99.90
32502;DHT22;18952;52.516;13.460;2023-08-01T10:55:52;19.00;99.90
32502;DHT22;18952;52.516;13.460;2023-08-01T10:58:19;18.30;99.90
32502;DHT22;18952;52.516;13.460;2023-08-01T11:00:46;17.80;99.90
32502;DHT22;18952;52.516;13.460;2023-08-01T11:03:12;17.50;99.90
32502;DHT22;18952;52.516;13.460;2023-08-01T11:05:39;17.40;99.90
32502;DHT22;18952;52.516;13.460;2023-08-01T11:08:06;17.20;99.90
32502;DHT22;18952;52.516;13.460;2023-08-01T11:10:33;17.00;99.90
32502;DHT22;18952;52.516;13.460;2023-08-01T11:13:00;16.90;99.90
32502;DHT22;18952;52.516;13.460;2023-08-01T11:15:27;16.80;99.90
32502;DHT22;18952;52.516;13.460;2023-08-01T11:17:55;16.80;99.90
32502;DHT22;18952;52.516;13.460;2023-08-01T11:20:24;16.80;99.90
32502;DHT22;18952;52.516;13.460;2023-08-01T11:22:55;16.90;99.90
32502;DHT22;18952;52.516;13.460;2023-08-01T11:25:42;16.80;99.90
32502;DHT22;18952;52.516;13.460;2023-08-01T11:28:14;16.80;99.90
32502;DHT22;18952;52.516;13.460;2023-08-01T11:30:41;16.80;99.90
32502;DHT22;18952;52.516;13.460;2023-08-01T11:33:19;16.80;99.90
32502;DHT22;18952;52.516;13.460;2023-08-01T11:35:53;16.90;99.90
32502;DHT22;18952;52.516;13.460;2023-08-01T11:38:22;16.90;99.90
32502;DHT22;18952;52.516;13.460;2023-08-01T11:40:50;17.00;99.90
32502;DHT22;18952;52.516;13.460;2023-08-01T11:43:17;17.10;99.90
32502;DHT22;18952;52.516;13.460;2023-08-01T11:45:49;17.30;99.90
32502;DHT22;18952;52.516;13.460;2023-08-01T11:48:16;17.40;99.90
32502;DHT22;18952;52.516;13.460;2023-08-01T11:50:43;17.50;99.90
32502;DHT22;18952;52.516;13.460;2023-08-01T11:53:20;17.60;99.90
32502;DHT22;18952;52.516;13.460;2023-08-01T11:55:48;17.70;99.90
32502;DHT22;18952;52.516;13.460;2023-08-01T11:58:15;17.80;99.90
32502;DHT22;18952;52.516;13.460;2023-08-01T12:00:42;17.80;99.90
32502;DHT22;18952;52.516;13.460;2023-08-01T12:03:10;17.70;99.90
32502;DHT22;18952;52.516;13.460;2023-08-01T12:05:37;17.70;99.90
32502;DHT22;18952;52.516;13.460;2023-08-01T12:08:13;17.70;99.90
32502;DHT22;18952;52.516;13.460;2023-08-01T12:10:43;17.80;99.90
32502;DHT22;18952;52.516;13.460;2023-08-01T12:13:24;17.90;99.90
32502;DHT22;18952;52.516;13.460;2023-08-01T12:15:52;18.00;99.90
32502;DHT22;18952;52.516;13.460;2023-08-01T12:18:29;18.00;99.90
32502;DHT22;18952;52.516;13.460;2023-08-01T12:20:59;18.20;99.90
32502;DHT22;18952;52.516;13.460;2023-08-01T12:23:26;18.20;99.90
32502;DHT22;18952;52.516;13.460;2023-08-01T12:25:53;18.40;99.90
32502;DHT22;18952;52.516;13.460;2023-08-01T12:28:19;18.50;99.90
32502;DHT22;18952;52.516;13.460;2023-08-01T12:30:46;18.60;99.90
32502;DHT22;18952;52.516;13.460;2023-08-01T12:33:13;18.70;99.90
32502;DHT22;18952;52.516;13.460;2023-08-01T12:35:40;18.70;99.90
32502;DHT22;18952;52.516;13.460;2023-08-01T12:38:08;18.70;99.90
32502;DHT22;18952;52.516;13.460;2023-08-01T12:40:36;18.70;99.90
32502;DHT22;18952;52.516;13.460;2023-08-01T12:43:03;18.80;99.90
32502;DHT22;18952;52.516;13.460;2023-08-01T12:45:30;19.00;99.90
32502;DHT22;18952;52.516;13.460;2023-08-01T12:47:56;19.40;99.90
32502;DHT22;18952;52.516;13.460;2023-08-01T12:50:23;20.00;99.90
32502;DHT22;18952;52.516;13.460;2023-08-01T12:52:50;20.10;99.90
32502;DHT22;18952;52.516;13.460;2023-08-01T12:55:17;20.00;99.90
32502;DHT22;18952;52.516;13.460;2023-08-01T12:57:44;19.90;99.90
32502;DHT22;18952;52.516;13.460;2023-08-01T13:00:11;19.70;99.90
32502;DHT22;18952;52.516;13.460;2023-08-01T13:02:38;19.70;99.90
32502;DHT22;18952;52.516;13.460;2023-08-01T13:05:05;19.60;99.90
32502;DHT22;18952;52.516;13.460;2023-08-01T13:07:32;19.40;99.90
32502;DHT22;18952;52.516;13.460;2023-08-01T13:10:00;19.40;99.90
32502;DHT22;18952;52.516;13.460;2023-08-01T13:12:27;19.50;99.90
32502;DHT22;18952;52.516;13.460;2023-08-01T13:14:54;19.70;99.90
32502;DHT22;18952;52.516;13.460;2023-08-01T13:17:38;19.90;99.90
32502;DHT22;18952;52.516;13.460;2023-08-01T13:20:06;20.10;99.90
32502;DHT22;18952;52.516;13.460;2023-08-01T13:22:33;20.40;99.90
32502;DHT22;18952;52.516;13.460;2023-08-01T13:24:59;20.70;99.90
32502;DHT22;18952;52.516;13.460;2023-08-01T13:27:26;21.00;99.90
32502;DHT22;18952;52.516;13.460;2023-08-01T13:29:53;20.80;99.90
32502;DHT22;18952;52.516;13.460;2023-08-01T13:32:20;20.60;99.90
32502;DHT22;18952;52.516;13.460;2023-08-01T13:34:47;20.60;99.90
32502;DHT22;18952;52.516;13.460;2023-08-01T13:37:13;20.70;99.90
32502;DHT22;18952;52.516;13.460;2023-08-01T13:39:40;20.90;99.90
32502;DHT22;18952;52.516;13.460;2023-08-01T13:42:07;21.20;99.90
32502;DHT22;18952;52.516;13.460;2023-08-01T13:44:33;21.50;99.90
32502;DHT22;18952;52.516;13.460;2023-08-01T13:47:00;21.80;99.90
32502;DHT22;18952;52.516;13.460;2023-08-01T13:49:27;21.90;99.90
32502;DHT22;18952;52.516;13.460;2023-08-01T13:51:54;22.00;99.90
32502;DHT22;18952;52.516;13.460;2023-08-01T13:54:20;22.10;99.90
32502;DHT22;18952;52.516;13.460;2023-08-01T13:56:47;22.00;99.90
32502;DHT22;18952;52.516;13.460;2023-08-01T13:59:14;22.20;99.90
32502;DHT22;18952;52.516;13.460;2023-08-01T14:01:41;22.30;99.90
32502;DHT22;18952;52.516;13.460;2023-08-01T14:04:08;22.10;99.90
32502;DHT22;18952;52.516;13.460;2023-08-01T14:06:34;21.90;99.90
32502;DHT22;18952;52.516;13.460;2023-08-01T14:09:01;21.70;99.90
32502;DHT22;18952;52.516;13.460;2023-08-01T14:11:28;21.80;99.90
32502;DHT22;18952;52.516;13.460;2023-08-01T14:13:55;22.00;99.90
32502;DHT22;18952;52.516;13.460;2023-08-01T14:16:22;22.20;99.90
32502;DHT22;18952;52.516;13.460;2023-08-01T14:18:49;22.10;99.90
32502;DHT22;18952;52.516;13.460;2023-08-01T14:21:16;22.00;99.90
32502;DHT22;18952;52.516;13.460;2023-08-01T14:23:54;22.30;99.90
32502;DHT22;18952;52.516;13.460;2023-08-01T14:26:23;22.50;99.90
32502;DHT22;18952;52.516;13.460;2023-08-01T14:28:50;23.00;99.90
32502;DHT22;18952;52.516;13.460;2023-08-01T14:31:17;23.00;99.90
32502;DHT22;18952;52.516;13.460;2023-08-01T14:33:44;22.80;99.90
32502;DHT22;18952;52.516;13.460;2023-08-01T14:36:12;23.00;99.90
32502;DHT22;18952;52.516;13.460;2023-08-01T14:38:39;23.20;99.90
32502;DHT22;18952;52.516;13.460;2023-08-01T14:41:06;23.40;99.90
32502;DHT22;18952;52.516;13.460;2023-08-01T14:43:53;23.50;99.90
32502;DHT22;18952;52.516;13.460;2023-08-01T14:46:37;23.60;99.90
32502;DHT22;18952;52.516;13.460;2023-08-01T14:49:04;23.60;99.90
32502;DHT22;18952;52.516;13.460;2023-08-01T14:51:31;23.40;99.90
32502;DHT22;18952;52.516;13.460;2023-08-01T14:53:57;23.20;99.90
32502;DHT22;18952;52.516;13.460;2023-08-01T14:56:24;23.20;99.90
32502;DHT22;18952;52.516;13.460;2023-08-01T14:58:51;23.40;99.90
32502;DHT22;18952;52.516;13.460;2023-08-01T15:01:18;23.30;99.90
32502;DHT22;18952;52.516;13.460;2023-08-01T15:03:45;23.30;99.90
32502;DHT22;18952;52.516;13.460;2023-08-01T15:06:12;22.90;99.90
32502;DHT22;18952;52.516;13.460;2023-08-01T15:08:39;22.40;99.90
32502;DHT22;18952;52.516;13.460;2023-08-01T15:11:06;22.20;99.90
32502;DHT22;18952;52.516;13.460;2023-08-01T15:13:35;21.90;99.90
32502;DHT22;18952;52.516;13.460;2023-08-01T15:16:02;21.60;99.90
32502;DHT22;18952;52.516;13.460;2023-08-01T15:18:28;21.40;99.90
32502;DHT22;18952;52.516;13.460;2023-08-01T15:20:55;21.30;99.90
32502;DHT22;18952;52.516;13.460;2023-08-01T15:23:22;20.40;99.90
32502;DHT22;18952;52.516;13.460;2023-08-01T15:25:56;18.50;99.90
32502;DHT22;18952;52.516;13.460;2023-08-01T15:28:24;17.20;99.90